Latest Coastal Weather Observations for Norfolk Island

IDN60701

Issued at 10:51 am EST Tuesday 25 July 2017 (issued every 10 minutes, with the page automatically refreshed every 10 minutes)

About coastal observations | Map of coastal stations | Coastal observations for NSW | Marine services | Other Formats
Station Details ID: 200288 Name: NORFOLK ISLAND AERO Lat: -29.04 Lon: 167.94 Height: 111.73 m
Data from the previous 72 hours. | See also: Recent months at Norfolk Island
Date/Time
EST
Temp
°C
Wind Pressure Rain since
9am
mm
Weather Cloud Vis
km
Sea
Height
m
Swell
Dir  Spd
kts
Gust
kts
hPa Trend Height
m
Period
s
Dir
25/10:30am 18.3 SSW 13 18 1017.6 - 0.0 - Mostly clear 10 - - - -
25/10:00am 18.5 SSW 12 17 1017.8 - 0.0 - Mostly clear 10 - - - -
25/09:30am 18.3 S 14 21 1018.1 - 0.0 - Mostly clear 10 - - - -
25/09:00am 18.3 S 12 16 1018.2 - 0.0 - Mostly clear 10 - - - -
25/08:30am 17.9 S 13 17 1018.1 - 0.0 - Mostly clear 10 - - - -
25/08:00am 17.8 S 14 19 1018.0 - 2.4 - Mostly clear 10 - - - -
25/07:30am 17.5 S 15 22 1017.6 - 2.4 - Mostly clear 10 - - - -
25/07:00am 17.3 S 14 22 1017.4 - 2.4 - Mostly clear 10 - - - -
25/06:30am 17.0 S 11 17 1017.0 - 2.4 - Partly cloudy 10 - - - -
25/06:00am 16.8 SSW 12 17 1016.7 - 2.4 - Partly cloudy 10 - - - -
25/05:30am 16.6 SSW 13 18 1016.5 - 2.4 - Partly cloudy 10 - - - -
25/05:00am 16.7 SSW 14 19 1016.2 - 2.4 - Mostly clear 10 - - - -
25/04:30am 16.7 SSW 15 19 1015.9 - 2.4 - Partly cloudy 10 - - - -
25/04:00am 16.9 SSW 13 20 1015.6 - 2.4 - Partly cloudy 10 - - - -
25/03:30am 16.7 SW 14 19 1015.3 - 2.4 - Partly cloudy 10 - - - -
25/03:00am 16.6 SSW 13 17 1015.2 - 2.4 - Partly cloudy 10 - - - -
25/02:30am 16.6 SW 13 19 1015.2 - 2.4 - Partly cloudy 10 - - - -
25/02:00am 16.5 SW 14 20 1015.2 - 2.4 - Mostly clear 10 - - - -
25/01:30am 16.4 SW 12 18 1015.3 - 2.4 - Partly cloudy 10 - - - -
25/01:00am 16.2 SW 12 17 1015.5 - 2.4 - Partly cloudy 10 - - - -
25/12:30am 16.1 SW 11 16 1015.7 - 2.4 - Partly cloudy 10 - - - -
25/12:00am 16.1 SSW 10 16 1015.9 - 2.4 - Partly cloudy 10 - - - -
 
Date/Time
EST
Temp
°C
Wind Pressure Rain since
9am
mm
Weather Cloud Vis
km
Sea
Height
m
Swell
Dir  Spd
kts
Gust
kts
hPa Trend Height
m
Period
s
Dir
24/11:30pm 14.8 SSW 8 14 1016.0 - 2.4 - Partly cloudy 10 - - - -
24/11:00pm 14.8 SW 10 15 1015.9 - 2.4 Rain Partly cloudy 10 - - - -
24/10:51pm 14.6 SW 9 14 1015.9 - 2.4 - Partly cloudy 10 - - - -
24/10:30pm 13.6 SSW 17 24 1016.4 - 1.2 - Partly cloudy 6 - - - -
24/10:29pm 13.7 SSW 18 27 1016.4 - 1.2 - Partly cloudy 6 - - - -
24/10:00pm 16.8 SW 14 19 1016.3 - 0.2 - Partly cloudy 10 - - - -
24/09:30pm 17.0 SW 12 17 1016.4 - 0.2 - Partly cloudy 10 - - - -
24/09:00pm 16.9 SW 13 20 1016.4 - 0.2 - Partly cloudy 10 - - - -
24/08:30pm 16.7 SW 10 16 1016.5 - 0.2 - Partly cloudy 10 - - - -
24/08:00pm 16.4 SW 11 15 1016.6 - 0.2 - - 10 - - - -
24/07:30pm 16.6 SW 10 16 1016.7 - 0.2 - Partly cloudy 10 - - - -
24/07:00pm 16.4 SW 11 15 1016.6 - 0.2 - Partly cloudy 10 - - - -
24/06:30pm 16.0 SW 9 14 1016.7 - 0.2 - Partly cloudy 10 - - - -
24/06:00pm 16.1 SW 11 15 1016.6 - 0.2 - Partly cloudy 10 - - - -
24/05:30pm 16.3 SSW 11 18 1016.6 - 0.2 - Partly cloudy 10 - - - -
24/05:00pm 16.1 SSW 12 16 1016.4 - 0.2 - Mostly clear 10 - - - -
24/04:30pm 16.2 SSW 10 14 1016.1 - 0.2 - Partly cloudy 10 - - - -
24/04:00pm 16.0 SW 12 16 1016.0 - 0.2 - Mostly clear 10 - - - -
24/03:30pm 16.7 SW 12 19 1015.9 - 0.2 - Mostly clear 10 - - - -
24/03:00pm 16.1 SW 11 16 1015.9 - 0.2 - Mostly clear 10 - - - -
24/02:30pm 16.2 SW 13 19 1015.9 - 0.2 - Mostly clear 10 - - - -
24/02:00pm 16.5 SW 10 15 1016.0 - 0.2 Rain Partly cloudy 10 - - - -
24/01:30pm 15.3 WSW 6 9 1016.1 - 0.2 - Mostly clear 10 - - - -
24/01:12pm 14.8 SW 13 19 1016.3 - 0.2 Showers Mostly clear 4 - - - -
24/01:00pm 15.3 SW 14 19 1016.3 - 0.0 - Partly cloudy 10 - - - -
24/12:30pm 16.1 SSW 13 20 1016.2 - 0.0 Showers Mostly clear 10 - - - -
24/12:00pm 18.0 SW 12 18 1016.4 - 0.0 - Mostly clear 10 - - - -
24/11:30am 17.8 SW 14 18 1016.6 - 0.0 - Mostly clear 10 - - - -
24/11:00am 17.8 SW 15 20 1017.0 - 0.0 - Mostly clear 10 - - - -
24/10:30am 17.5 SW 13 17 1017.1 - 0.0 - Mostly clear 10 - - - -
24/10:00am 16.8 WSW 8 11 1017.7 - 0.0 - Mostly clear 10 - - - -
24/09:47am 16.2 SW 7 11 1018.1 - 0.0 - Partly cloudy 10 - - - -
24/09:34am 14.8 SW 15 25 1018.3 - 0.0 - Mostly clear 10 - - - -
24/09:30am 14.8 SW 17 25 1018.4 - 0.0 Showers Partly cloudy 8 - - - -
24/09:29am 15.0 SW 17 25 1018.4 - 0.0 Showers Partly cloudy 8 - - - -
24/09:24am 16.7 SW 14 21 1018.3 - 0.0 Showers Partly cloudy 5 - - - -
24/09:00am 16.7 SW 8 14 1018.4 - 0.0 - Mostly clear 10 - - - -
24/08:30am 14.9 WSW 12 19 1018.5 - 0.0 Showers Partly cloudy 10 - - - -
24/08:00am 17.1 SW 9 13 1018.3 - 0.0 - Mostly clear 10 - - - -
24/07:30am 16.5 SSW 8 11 1018.3 - 0.0 - Mostly clear 10 - - - -
24/07:00am 16.2 SSW 8 10 1018.2 - 0.0 - Partly cloudy 10 - - - -
24/06:30am 15.8 SSW 6 9 1018.0 - 0.0 - Partly cloudy 10 - - - -
24/06:00am 14.5 SSW 7 10 1017.9 - 0.0 - - 10 - - - -
24/05:30am 14.0 SSW 7 9 1017.6 - 0.0 - Partly cloudy 10 - - - -
24/05:00am 14.3 SSW 6 8 1017.5 - 0.0 - Mostly clear 10 - - - -
24/04:30am 14.5 SSW 9 13 1017.2 - 0.0 - Partly cloudy 10 - - - -
24/04:00am 14.5 SSW 7 10 1017.0 - 0.0 - Partly cloudy 10 - - - -
24/03:30am 13.9 SSW 8 12 1016.9 - 0.0 - Partly cloudy 10 - - - -
24/03:00am 12.8 SSW 4 7 1017.1 - 0.0 - Partly cloudy 10 - - - -
24/02:30am 12.5 E 3 4 1017.2 - 0.0 - - 10 - - - -
24/02:00am 11.8 E 2 4 1017.4 - 0.0 - - 10 - - - -
24/01:30am 12.6 E 3 4 1017.4 - 0.0 - Cloudy 10 - - - -
24/01:00am 13.4 CALM 0 4 1017.7 - 0.0 - Partly cloudy 10 - - - -
24/12:30am 13.6 SW 9 13 1018.1 - 0.0 - Partly cloudy 10 - - - -
24/12:00am 14.2 SSW 8 16 1018.0 - 0.0 - Partly cloudy 10 - - - -
 
Date/Time
EST
Temp
°C
Wind Pressure Rain since
9am
mm
Weather Cloud Vis
km
Sea
Height
m
Swell
Dir  Spd
kts
Gust
kts
hPa Trend Height
m
Period
s
Dir
23/11:30pm 14.2 SSW 6 8 1017.9 - 0.0 - Partly cloudy 10 - - - -
23/11:00pm 14.0 SSW 7 9 1018.0 - 0.0 - Partly cloudy 10 - - - -
23/10:30pm 14.7 SSW 9 15 1018.2 - 0.0 - Partly cloudy 10 - - - -
23/10:00pm 14.7 SSW 8 14 1018.2 - 0.0 - Partly cloudy 10 - - - -
23/09:30pm 14.4 SSW 6 8 1018.3 - 0.0 - Partly cloudy 10 - - - -
23/09:00pm 13.9 SSE 5 6 1018.3 - 0.0 - Partly cloudy 10 - - - -
23/08:30pm 14.9 S 8 10 1018.2 - 0.0 - Partly cloudy 10 - - - -
23/08:00pm 13.9 SSW 6 8 1017.9 - 0.0 - - 10 - - - -
23/07:30pm 13.6 SSW 5 7 1017.7 - 0.0 - - 10 - - - -
23/07:00pm 14.5 S 7 10 1017.7 - 0.0 - - 10 - - - -
23/06:30pm 15.0 S 9 14 1017.6 - 0.0 - Partly cloudy 10 - - - -
23/06:00pm 14.8 S 5 7 1017.5 - 0.0 - Partly cloudy 10 - - - -
23/05:30pm 15.1 S 7 9 1017.5 - 0.0 - Partly cloudy 10 - - - -
23/05:00pm 15.1 SSW 9 13 1017.5 - 0.0 - Mostly cloudy 10 - - - -
23/04:30pm 15.2 SSW 7 11 1017.2 - 0.0 - Partly cloudy 10 - - - -
23/04:00pm 15.1 S 8 12 1016.9 - 0.0 - Partly cloudy 10 - - - -
23/03:30pm 16.0 S 7 9 1016.6 - 0.0 - Partly cloudy 10 - - - -
23/03:00pm 15.9 S 10 15 1016.5 - 0.0 - Partly cloudy 10 - - - -
23/02:30pm 16.7 S 10 15 1016.5 - 0.0 - Partly cloudy 10 - - - -
23/02:00pm 16.8 S 11 15 1016.6 - 0.0 - Mostly clear 10 - - - -
23/01:30pm 17.1 S 13 17 1016.5 - 0.0 - - 10 - - - -
23/01:00pm 16.8 S 11 16 1016.5 - 0.0 - - 10 - - - -
23/12:30pm 17.0 S 12 18 1016.6 - 0.0 - Partly cloudy 10 - - - -
23/12:00pm 17.2 S 12 18 1017.0 - 0.0 - Partly cloudy 10 - - - -
23/11:30am 17.1 S 11 16 1017.2 - 0.0 - Partly cloudy 10 - - - -
23/11:00am 16.0 S 12 16 1018.0 - 0.0 - Mostly cloudy 10 - - - -
23/10:30am 15.5 S 11 16 1018.5 - 0.0 - Partly cloudy 10 - - - -
23/10:26am 15.1 S 12 16 1018.5 - 0.0 - Partly cloudy 10 - - - -
23/10:09am 14.6 SSW 15 21 1018.7 - 0.0 - Partly cloudy 6 - - - -
23/10:00am 16.4 S 13 18 1018.6 - 0.0 - Partly cloudy 10 - - - -
23/09:30am 16.2 S 11 16 1018.9 - 0.0 - Partly cloudy 10 - - - -
23/09:00am 16.2 S 13 18 1019.0 - 0.0 - Partly cloudy 10 - - - -
23/08:30am 16.0 S 15 21 1019.0 - 0.0 - Partly cloudy 10 - - - -
23/08:00am 16.6 SSW 13 19 1018.4 - 3.6 - - 10 - - - -
23/07:30am 16.2 S 11 16 1018.3 - 3.6 - Partly cloudy 10 - - - -
23/07:00am 16.1 S 15 19 1017.9 - 3.6 - Cloudy 10 - - - -
23/06:30am 16.0 S 14 19 1017.6 - 3.6 - Partly cloudy 10 - - - -
23/06:00am 15.4 SSW 10 15 1017.4 - 3.6 - Partly cloudy 10 - - - -
23/05:30am 15.3 SSW 11 17 1017.1 - 3.6 - Partly cloudy 10 - - - -
23/05:00am 15.0 S 9 13 1016.7 - 3.6 - Cloudy 10 - - - -
23/04:30am 15.0 SSW 15 20 1016.4 - 3.6 - Partly cloudy 10 - - - -
23/04:12am 14.9 SSW 13 18 1016.1 - 3.6 - Partly cloudy 10 - - - -
23/04:00am 14.1 SSW 13 21 1016.0 - 3.6 - Partly cloudy 5 - - - -
23/03:56am 14.2 SSW 16 21 1016.0 - 3.6 - Partly cloudy 6 - - - -
23/03:30am 15.4 S 13 19 1015.5 - 3.6 - Partly cloudy 10 - - - -
23/03:00am 15.7 S 14 21 1015.4 - 3.6 - Partly cloudy 10 - - - -
23/02:30am 15.9 SSW 15 21 1015.4 - 3.6 - Partly cloudy 10 - - - -
23/02:00am 15.8 SSW 12 21 1015.4 - 3.6 - Mostly cloudy 10 - - - -
23/01:30am 15.4 SSW 15 20 1015.7 - 3.6 - Partly cloudy 10 - - - -
23/01:00am 15.8 SSW 13 19 1015.8 - 3.6 - Partly cloudy 10 - - - -
23/12:30am 15.8 SSW 14 19 1016.0 - 3.6 - Partly cloudy 10 - - - -
23/12:00am 15.1 SSW 19 27 1016.1 - 3.6 - Partly cloudy 10 - - - -
 
Date/Time
EST
Temp
°C
Wind Pressure Rain since
9am
mm
Weather Cloud Vis
km
Sea
Height
m
Swell
Dir  Spd
kts
Gust
kts
hPa Trend Height
m
Period
s
Dir
22/11:43pm 15.8 SSW 17 28 1015.8 - 3.6 - Partly cloudy 10 - - - -
22/11:30pm 16.1 SSW 16 21 1015.6 - 3.6 - Partly cloudy 10 - - - -
22/11:00pm 15.9 S 16 20 1015.7 - 3.6 - Cloudy 10 - - - -
22/10:30pm 16.2 SSW 15 23 1015.7 - 3.6 - Cloudy 10 - - - -
22/10:18pm 15.8 SSW 17 27 1015.7 - 3.6 - Partly cloudy 10 - - - -
22/10:00pm 15.7 SSW 15 20 1015.7 - 3.6 - - 10 - - - -
22/09:30pm 15.7 S 17 25 1015.6 - 3.6 - Partly cloudy 10 - - - -
22/09:07pm 16.5 SSW 16 26 1015.4 - 3.6 - Partly cloudy 10 - - - -
22/09:00pm 16.5 SSW 17 25 1015.4 - 3.6 - Partly cloudy 10 - - - -
22/08:30pm 16.2 SSW 15 20 1015.2 - 3.6 - Partly cloudy 10 - - - -
22/08:20pm 16.4 SSW 16 26 1015.1 - 3.6 - Partly cloudy 10 - - - -
22/08:00pm 16.2 SSW 17 26 1014.9 - 3.6 - Partly cloudy 10 - - - -
22/07:30pm 16.0 SSW 18 25 1014.9 - 3.6 - Partly cloudy 10 - - - -
22/07:05pm 16.0 SSW 18 28 1014.7 - 3.6 - Partly cloudy 10 - - - -
22/07:00pm 15.9 SSW 20 28 1014.7 - 3.6 - Partly cloudy 10 - - - -
22/06:30pm 16.3 SSW 17 26 1014.2 - 3.6 - Partly cloudy 10 - - - -
22/06:00pm 16.7 SSW 17 27 1013.7 - 3.6 - Partly cloudy 10 - - - -
22/05:30pm 16.0 SSW 17 21 1013.7 - 3.6 - Partly cloudy 10 - - - -
22/05:02pm 14.2 SSW 13 18 1013.5 - 3.6 - Partly cloudy 10 - - - -
22/05:00pm 14.1 SSW 13 20 1013.6 - 3.6 Showers Cloudy 10 - - - -
22/04:45pm 14.3 SSW 22 36 1013.5 - 3.6 - Partly cloudy 6 - - - -
22/04:36pm 15.8 SSW 17 27 1013.1 - 3.4 - Partly cloudy 10 - - - -
22/04:30pm 15.7 SSW 17 25 1013.0 - 3.4 - Partly cloudy 10 - - - -
22/04:21pm 15.2 SSW 18 24 1012.8 - 3.4 - Partly cloudy 10 - - - -
22/04:04pm 14.8 SSW 16 29 1012.7 - 3.4 - Partly cloudy 6 - - - -
22/04:02pm 15.3 SSW 15 29 1012.6 - 3.4 - Partly cloudy 7 - - - -
22/04:00pm 15.5 SSW 14 21 1012.5 - 3.2 - Partly cloudy 10 - - - -
22/03:48pm 15.1 SSW 17 28 1012.5 - 3.2 - Partly cloudy 6 - - - -
22/03:37pm 15.9 SSW 17 27 1012.3 - 3.2 - Partly cloudy 10 - - - -
22/03:30pm 16.1 SSW 19 27 1012.2 - 3.2 - Partly cloudy 10 - - - -
22/03:01pm 16.2 SSW 18 29 1011.9 - 3.2 - Partly cloudy 10 - - - -
22/03:00pm 16.2 SSW 17 26 1011.9 - 3.2 - Partly cloudy 10 - - - -
22/02:49pm 15.4 SSW 17 27 1011.8 - 3.2 - Partly cloudy 10 - - - -
22/02:30pm 16.4 SSW 20 28 1011.5 - 3.2 - Partly cloudy 10 - - - -
22/02:16pm 16.1 SSW 17 29 1011.6 - 3.2 - Partly cloudy 10 - - - -
22/02:10pm 15.8 SSW 17 23 1011.6 - 3.2 - Partly cloudy 10 - - - -
22/02:00pm 15.1 SSW 19 29 1011.7 - 3.2 Rain Cloudy 6 - - - -
22/01:41pm 15.6 SSW 22 34 1011.6 - 2.0 - Partly cloudy 5 - - - -
22/01:40pm 16.3 SSW 22 34 1011.3 - 1.8 - Partly cloudy 8 - - - -
22/01:30pm 17.5 SSW 22 30 1011.5 - 1.8 - Partly cloudy 8 - - - -
22/01:00pm 17.6 SSW 23 30 1011.3 - 1.8 - Partly cloudy 10 - - - -
22/12:35pm 17.7 SW 19 31 1011.2 - 1.8 - Partly cloudy 10 - - - -
22/12:30pm 17.4 SW 20 29 1011.2 - 1.8 - Partly cloudy 10 - - - -
22/12:03pm 16.8 SW 21 31 1011.5 - 1.8 - Partly cloudy 10 - - - -
22/12:00pm 16.9 SW 22 31 1011.3 - 1.8 - Partly cloudy 10 - - - -
22/11:51am 17.3 SW 19 27 1011.3 - 1.8 - Partly cloudy 10 - - - -
22/11:31am 15.5 SW 23 34 1011.8 - 1.6 - Partly cloudy 5 - - - -
22/11:30am 16.2 SW 23 34 1011.6 - 1.4 - Partly cloudy 8 - - - -
22/11:20am 17.6 SW 19 29 1011.7 - 1.2 - Partly cloudy 10 - - - -
22/11:01am 15.6 SW 23 37 1012.0 - 1.2 - Partly cloudy 6 - - - -
22/11:00am 16.2 SW 23 37 1011.9 - 1.2 Showers Partly cloudy 7 - - - -
22/10:30am 17.6 SW 20 30 1012.2 - 1.2 - Partly cloudy 10 - - - -
22/10:24am 17.5 SW 19 30 1012.3 - 1.2 - Partly cloudy 10 - - - -
22/10:12am 16.3 SW 24 45 1012.4 - 1.0 - Partly cloudy 3 - - - -
22/10:08am 15.3 SW 24 45 1012.5 - 1.0 - Partly cloudy 3 - - - -
22/10:04am 15.0 SW 23 45 1012.4 - 1.0 - Partly cloudy 3 - - - -
22/10:03am 15.9 SW 21 41 1012.4 - 0.4 - Partly cloudy 7 - - - -
22/10:02am 17.2 SW 20 30 1012.4 - 0.0 - Partly cloudy 10 - - - -
22/10:00am 17.6 SW 19 27 1012.4 - 0.0 - Partly cloudy 10 - - - -
22/09:30am 17.8 SW 22 33 1012.7 - 0.0 - Partly cloudy 10 - - - -

Other Formats:

Comma delimited format used in spreadsheet applications
http://www.bom.gov.au/fwo/IDN60701/IDN60701.94996.axf

JavaScript Object Notation format (JSON) in row-major order
http://www.bom.gov.au/fwo/IDN60701/IDN60701.94996.json